sensor_id;sensor_type;location;lat;lon;timestamp;P1;durP1;ratioP1;P2;durP2;ratioP2
8042;SDS011;4064;48.132;11.366;2023-02-07T00:02:10;25.40;;;18.63;;
8042;SDS011;4064;48.132;11.366;2023-02-07T00:04:35;23.10;;;17.97;;
8042;SDS011;4064;48.132;11.366;2023-02-07T00:07:01;22.63;;;18.10;;
8042;SDS011;4064;48.132;11.366;2023-02-07T00:09:27;21.20;;;17.40;;
8042;SDS011;4064;48.132;11.366;2023-02-07T00:11:52;29.27;;;20.17;;
8042;SDS011;4064;48.132;11.366;2023-02-07T00:14:18;23.77;;;18.40;;
8042;SDS011;4064;48.132;11.366;2023-02-07T00:16:43;27.33;;;18.80;;
8042;SDS011;4064;48.132;11.366;2023-02-07T00:19:09;26.40;;;20.07;;
8042;SDS011;4064;48.132;11.366;2023-02-07T00:21:35;22.40;;;19.33;;
8042;SDS011;4064;48.132;11.366;2023-02-07T00:24:01;24.80;;;20.10;;
8042;SDS011;4064;48.132;11.366;2023-02-07T00:26:26;30.73;;;21.47;;
8042;SDS011;4064;48.132;11.366;2023-02-07T00:28:53;24.38;;;18.80;;
8042;SDS011;4064;48.132;11.366;2023-02-07T00:31:21;21.83;;;17.38;;
8042;SDS011;4064;48.132;11.366;2023-02-07T00:33:49;24.83;;;18.88;;
8042;SDS011;4064;48.132;11.366;2023-02-07T00:36:17;23.92;;;19.60;;
8042;SDS011;4064;48.132;11.366;2023-02-07T00:38:45;23.20;;;17.85;;
8042;SDS011;4064;48.132;11.366;2023-02-07T00:41:11;24.55;;;20.02;;
8042;SDS011;4064;48.132;11.366;2023-02-07T00:43:39;22.75;;;20.05;;
8042;SDS011;4064;48.132;11.366;2023-02-07T00:46:05;24.65;;;20.08;;
8042;SDS011;4064;48.132;11.366;2023-02-07T00:48:32;24.20;;;19.80;;
8042;SDS011;4064;48.132;11.366;2023-02-07T00:50:57;26.90;;;18.23;;
8042;SDS011;4064;48.132;11.366;2023-02-07T00:53:24;24.67;;;18.55;;
8042;SDS011;4064;48.132;11.366;2023-02-07T00:55:51;25.70;;;19.40;;
8042;SDS011;4064;48.132;11.366;2023-02-07T00:58:17;24.73;;;19.87;;
8042;SDS011;4064;48.132;11.366;2023-02-07T01:00:42;24.90;;;19.70;;
8042;SDS011;4064;48.132;11.366;2023-02-07T01:03:08;23.03;;;19.13;;
8042;SDS011;4064;48.132;11.366;2023-02-07T01:05:34;25.50;;;20.30;;
8042;SDS011;4064;48.132;11.366;2023-02-07T01:07:59;26.10;;;19.30;;
8042;SDS011;4064;48.132;11.366;2023-02-07T01:10:26;21.92;;;19.55;;
8042;SDS011;4064;48.132;11.366;2023-02-07T01:12:52;21.83;;;18.87;;
8042;SDS011;4064;48.132;11.366;2023-02-07T01:15:17;22.30;;;18.33;;
8042;SDS011;4064;48.132;11.366;2023-02-07T01:17:43;22.03;;;18.57;;
8042;SDS011;4064;48.132;11.366;2023-02-07T01:20:09;25.70;;;20.13;;
8042;SDS011;4064;48.132;11.366;2023-02-07T01:22:36;24.70;;;20.73;;
8042;SDS011;4064;48.132;11.366;2023-02-07T01:25:03;23.02;;;18.75;;
8042;SDS011;4064;48.132;11.366;2023-02-07T01:27:32;25.73;;;20.13;;
8042;SDS011;4064;48.132;11.366;2023-02-07T01:29:58;22.48;;;18.30;;
8042;SDS011;4064;48.132;11.366;2023-02-07T01:32:24;24.48;;;18.88;;
8042;SDS011;4064;48.132;11.366;2023-02-07T01:34:50;22.97;;;19.00;;
8042;SDS011;4064;48.132;11.366;2023-02-07T01:37:16;23.30;;;17.47;;
8042;SDS011;4064;48.132;11.366;2023-02-07T01:39:41;23.77;;;17.77;;
8042;SDS011;4064;48.132;11.366;2023-02-07T01:42:13;21.83;;;18.43;;
8042;SDS011;4064;48.132;11.366;2023-02-07T01:47:15;20.77;;;18.57;;
8042;SDS011;4064;48.132;11.366;2023-02-07T01:49:43;23.20;;;18.63;;
8042;SDS011;4064;48.132;11.366;2023-02-07T01:52:10;20.30;;;17.00;;
8042;SDS011;4064;48.132;11.366;2023-02-07T01:54:40;23.92;;;17.80;;
8042;SDS011;4064;48.132;11.366;2023-02-07T01:57:08;21.67;;;17.63;;
8042;SDS011;4064;48.132;11.366;2023-02-07T01:59:38;20.67;;;17.67;;
8042;SDS011;4064;48.132;11.366;2023-02-07T02:02:08;25.60;;;18.77;;
8042;SDS011;4064;48.132;11.366;2023-02-07T02:04:36;21.80;;;17.75;;
8042;SDS011;4064;48.132;11.366;2023-02-07T02:07:03;21.83;;;15.23;;
8042;SDS011;4064;48.132;11.366;2023-02-07T02:09:31;20.67;;;17.92;;
8042;SDS011;4064;48.132;11.366;2023-02-07T02:15:15;19.90;;;17.90;;
8042;SDS011;4064;48.132;11.366;2023-02-07T02:29:27;24.58;;;17.23;;
8042;SDS011;4064;48.132;11.366;2023-02-07T02:40:20;22.95;;;17.98;;
8042;SDS011;4064;48.132;11.366;2023-02-07T02:42:56;26.15;;;18.13;;
8042;SDS011;4064;48.132;11.366;2023-02-07T02:45:38;25.48;;;17.02;;
8042;SDS011;4064;48.132;11.366;2023-02-07T02:48:09;22.60;;;17.02;;
8042;SDS011;4064;48.132;11.366;2023-02-07T02:50:36;20.67;;;17.02;;
8042;SDS011;4064;48.132;11.366;2023-02-07T02:53:03;21.23;;;15.52;;
8042;SDS011;4064;48.132;11.366;2023-02-07T03:12:47;20.50;;;16.95;;
8042;SDS011;4064;48.132;11.366;2023-02-07T03:14:57;23.85;;;17.75;;
8042;SDS011;4064;48.132;11.366;2023-02-07T03:17:33;19.95;;;17.33;;
8042;SDS011;4064;48.132;11.366;2023-02-07T03:20:22;20.17;;;16.35;;
8042;SDS011;4064;48.132;11.366;2023-02-07T03:22:55;22.13;;;17.52;;
8042;SDS011;4064;48.132;11.366;2023-02-07T03:25:22;20.60;;;16.80;;
8042;SDS011;4064;48.132;11.366;2023-02-07T03:27:49;17.70;;;15.80;;
8042;SDS011;4064;48.132;11.366;2023-02-07T03:30:17;22.20;;;16.20;;
8042;SDS011;4064;48.132;11.366;2023-02-07T03:32:47;25.50;;;18.90;;
8042;SDS011;4064;48.132;11.366;2023-02-07T03:37:51;23.52;;;18.15;;
8042;SDS011;4064;48.132;11.366;2023-02-07T03:40:26;19.80;;;16.48;;
8042;SDS011;4064;48.132;11.366;2023-02-07T03:42:56;24.00;;;17.42;;
8042;SDS011;4064;48.132;11.366;2023-02-07T03:45:28;23.38;;;18.58;;
8042;SDS011;4064;48.132;11.366;2023-02-07T03:47:53;23.70;;;17.70;;
8042;SDS011;4064;48.132;11.366;2023-02-07T03:50:19;23.13;;;17.20;;
8042;SDS011;4064;48.132;11.366;2023-02-07T03:52:44;21.87;;;16.87;;
8042;SDS011;4064;48.132;11.366;2023-02-07T03:55:10;20.20;;;16.40;;
8042;SDS011;4064;48.132;11.366;2023-02-07T03:57:36;24.20;;;17.20;;
8042;SDS011;4064;48.132;11.366;2023-02-07T04:00:02;20.07;;;15.93;;
8042;SDS011;4064;48.132;11.366;2023-02-07T04:02:29;19.35;;;16.35;;
8042;SDS011;4064;48.132;11.366;2023-02-07T04:04:54;22.93;;;16.90;;
8042;SDS011;4064;48.132;11.366;2023-02-07T04:07:20;20.67;;;16.70;;
8042;SDS011;4064;48.132;11.366;2023-02-07T04:09:45;18.60;;;15.63;;
8042;SDS011;4064;48.132;11.366;2023-02-07T04:12:11;18.43;;;16.43;;
8042;SDS011;4064;48.132;11.366;2023-02-07T04:14:36;21.73;;;16.57;;
8042;SDS011;4064;48.132;11.366;2023-02-07T04:17:02;21.10;;;16.07;;
8042;SDS011;4064;48.132;11.366;2023-02-07T04:19:28;19.83;;;17.73;;
8042;SDS011;4064;48.132;11.366;2023-02-07T04:21:53;18.57;;;16.37;;
8042;SDS011;4064;48.132;11.366;2023-02-07T04:24:19;18.17;;;16.37;;
8042;SDS011;4064;48.132;11.366;2023-02-07T04:26:45;20.87;;;16.43;;
8042;SDS011;4064;48.132;11.366;2023-02-07T04:29:10;23.17;;;17.70;;
8042;SDS011;4064;48.132;11.366;2023-02-07T04:31:36;18.40;;;16.03;;
8042;SDS011;4064;48.132;11.366;2023-02-07T04:34:03;19.97;;;16.67;;
8042;SDS011;4064;48.132;11.366;2023-02-07T04:36:29;28.55;;;18.13;;
8042;SDS011;4064;48.132;11.366;2023-02-07T04:38:55;20.70;;;16.40;;
8042;SDS011;4064;48.132;11.366;2023-02-07T04:41:21;22.60;;;17.17;;
8042;SDS011;4064;48.132;11.366;2023-02-07T04:43:47;19.55;;;16.90;;
8042;SDS011;4064;48.132;11.366;2023-02-07T04:46:15;26.00;;;16.97;;
8042;SDS011;4064;48.132;11.366;2023-02-07T04:48:41;19.38;;;16.55;;
8042;SDS011;4064;48.132;11.366;2023-02-07T04:51:06;20.97;;;16.60;;
8042;SDS011;4064;48.132;11.366;2023-02-07T04:53:32;17.80;;;15.90;;
8042;SDS011;4064;48.132;11.366;2023-02-07T04:55:58;21.87;;;17.10;;
8042;SDS011;4064;48.132;11.366;2023-02-07T04:58:24;20.40;;;18.20;;
8042;SDS011;4064;48.132;11.366;2023-02-07T05:00:51;20.90;;;17.00;;
8042;SDS011;4064;48.132;11.366;2023-02-07T05:03:17;18.60;;;16.13;;
8042;SDS011;4064;48.132;11.366;2023-02-07T05:05:43;22.93;;;18.73;;
8042;SDS011;4064;48.132;11.366;2023-02-07T05:08:09;19.95;;;17.77;;
8042;SDS011;4064;48.132;11.366;2023-02-07T05:10:36;22.38;;;17.90;;
8042;SDS011;4064;48.132;11.366;2023-02-07T05:13:03;20.35;;;16.95;;
8042;SDS011;4064;48.132;11.366;2023-02-07T05:15:29;22.80;;;17.05;;
8042;SDS011;4064;48.132;11.366;2023-02-07T05:17:55;21.80;;;17.50;;
8042;SDS011;4064;48.132;11.366;2023-02-07T05:20:21;23.50;;;17.42;;
8042;SDS011;4064;48.132;11.366;2023-02-07T05:22:48;20.08;;;18.00;;
8042;SDS011;4064;48.132;11.366;2023-02-07T05:25:13;23.40;;;18.77;;
8042;SDS011;4064;48.132;11.366;2023-02-07T05:27:39;28.17;;;19.77;;
8042;SDS011;4064;48.132;11.366;2023-02-07T05:30:05;18.53;;;16.57;;
8042;SDS011;4064;48.132;11.366;2023-02-07T05:32:32;21.65;;;18.23;;
8042;SDS011;4064;48.132;11.366;2023-02-07T05:35:16;21.45;;;16.67;;
8042;SDS011;4064;48.132;11.366;2023-02-07T05:37:42;22.33;;;17.37;;
8042;SDS011;4064;48.132;11.366;2023-02-07T05:40:07;24.00;;;18.43;;
8042;SDS011;4064;48.132;11.366;2023-02-07T05:42:34;23.58;;;18.05;;
8042;SDS011;4064;48.132;11.366;2023-02-07T05:44:59;21.30;;;18.40;;
8042;SDS011;4064;48.132;11.366;2023-02-07T05:47:25;19.97;;;16.83;;
8042;SDS011;4064;48.132;11.366;2023-02-07T05:49:51;20.50;;;18.13;;
8042;SDS011;4064;48.132;11.366;2023-02-07T05:52:16;18.77;;;16.77;;
8042;SDS011;4064;48.132;11.366;2023-02-07T05:54:42;22.73;;;19.40;;
8042;SDS011;4064;48.132;11.366;2023-02-07T05:57:08;29.67;;;19.83;;
8042;SDS011;4064;48.132;11.366;2023-02-07T05:59:34;25.07;;;19.70;;
8042;SDS011;4064;48.132;11.366;2023-02-07T06:01:59;23.70;;;18.97;;
8042;SDS011;4064;48.132;11.366;2023-02-07T06:04:25;19.50;;;16.17;;
8042;SDS011;4064;48.132;11.366;2023-02-07T06:06:51;21.40;;;18.80;;
8042;SDS011;4064;48.132;11.366;2023-02-07T06:09:16;27.00;;;18.47;;
8042;SDS011;4064;48.132;11.366;2023-02-07T06:11:42;23.70;;;19.70;;
8042;SDS011;4064;48.132;11.366;2023-02-07T06:14:08;24.40;;;20.37;;
8042;SDS011;4064;48.132;11.366;2023-02-07T06:16:33;21.27;;;17.50;;
8042;SDS011;4064;48.132;11.366;2023-02-07T06:18:59;28.00;;;20.03;;
8042;SDS011;4064;48.132;11.366;2023-02-07T06:21:25;25.67;;;20.70;;
8042;SDS011;4064;48.132;11.366;2023-02-07T06:23:51;21.50;;;18.43;;
8042;SDS011;4064;48.132;11.366;2023-02-07T06:26:16;24.30;;;19.33;;
8042;SDS011;4064;48.132;11.366;2023-02-07T06:28:42;24.27;;;21.40;;
8042;SDS011;4064;48.132;11.366;2023-02-07T06:31:08;26.40;;;19.73;;
8042;SDS011;4064;48.132;11.366;2023-02-07T06:33:33;29.70;;;20.93;;
8042;SDS011;4064;48.132;11.366;2023-02-07T06:35:59;23.50;;;16.83;;
8042;SDS011;4064;48.132;11.366;2023-02-07T06:38:25;22.33;;;18.37;;
8042;SDS011;4064;48.132;11.366;2023-02-07T06:40:50;21.90;;;19.00;;
8042;SDS011;4064;48.132;11.366;2023-02-07T06:43:16;23.00;;;18.60;;
8042;SDS011;4064;48.132;11.366;2023-02-07T06:45:42;23.50;;;19.10;;
8042;SDS011;4064;48.132;11.366;2023-02-07T06:48:07;34.87;;;22.20;;
8042;SDS011;4064;48.132;11.366;2023-02-07T06:50:33;27.35;;;19.13;;
8042;SDS011;4064;48.132;11.366;2023-02-07T06:52:59;26.23;;;20.10;;
8042;SDS011;4064;48.132;11.366;2023-02-07T06:55:29;23.70;;;18.25;;
8042;SDS011;4064;48.132;11.366;2023-02-07T06:57:56;27.75;;;17.00;;
8042;SDS011;4064;48.132;11.366;2023-02-07T07:00:22;23.63;;;18.60;;
8042;SDS011;4064;48.132;11.366;2023-02-07T07:02:48;22.83;;;17.92;;
8042;SDS011;4064;48.132;11.366;2023-02-07T07:05:14;22.97;;;18.73;;
8042;SDS011;4064;48.132;11.366;2023-02-07T07:07:40;21.73;;;18.97;;
8042;SDS011;4064;48.132;11.366;2023-02-07T07:10:05;26.53;;;18.50;;
8042;SDS011;4064;48.132;11.366;2023-02-07T07:12:32;25.77;;;19.02;;
8042;SDS011;4064;48.132;11.366;2023-02-07T07:14:58;23.85;;;18.92;;
8042;SDS011;4064;48.132;11.366;2023-02-07T07:17:24;24.67;;;20.37;;
8042;SDS011;4064;48.132;11.366;2023-02-07T07:19:49;24.50;;;19.63;;
8042;SDS011;4064;48.132;11.366;2023-02-07T07:22:15;23.97;;;19.43;;
8042;SDS011;4064;48.132;11.366;2023-02-07T07:24:41;20.97;;;18.73;;
8042;SDS011;4064;48.132;11.366;2023-02-07T07:27:06;26.73;;;18.50;;
8042;SDS011;4064;48.132;11.366;2023-02-07T07:29:32;22.03;;;17.60;;
8042;SDS011;4064;48.132;11.366;2023-02-07T07:31:58;23.63;;;18.57;;
8042;SDS011;4064;48.132;11.366;2023-02-07T07:34:23;22.27;;;19.70;;
8042;SDS011;4064;48.132;11.366;2023-02-07T07:36:49;28.37;;;20.03;;
8042;SDS011;4064;48.132;11.366;2023-02-07T07:39:15;23.00;;;18.00;;
8042;SDS011;4064;48.132;11.366;2023-02-07T07:41:45;27.02;;;17.10;;
8042;SDS011;4064;48.132;11.366;2023-02-07T07:44:10;20.50;;;17.90;;
8042;SDS011;4064;48.132;11.366;2023-02-07T07:46:36;24.57;;;18.57;;
8042;SDS011;4064;48.132;11.366;2023-02-07T07:49:01;23.97;;;19.23;;
8042;SDS011;4064;48.132;11.366;2023-02-07T07:51:27;23.13;;;17.70;;
8042;SDS011;4064;48.132;11.366;2023-02-07T07:53:53;25.17;;;18.23;;
8042;SDS011;4064;48.132;11.366;2023-02-07T07:56:18;24.93;;;17.53;;
8042;SDS011;4064;48.132;11.366;2023-02-07T07:58:44;24.13;;;18.70;;
8042;SDS011;4064;48.132;11.366;2023-02-07T08:01:10;25.00;;;18.70;;
8042;SDS011;4064;48.132;11.366;2023-02-07T08:03:35;20.20;;;17.10;;
8042;SDS011;4064;48.132;11.366;2023-02-07T08:06:01;22.43;;;17.90;;
8042;SDS011;4064;48.132;11.366;2023-02-07T08:08:26;20.63;;;17.43;;
8042;SDS011;4064;48.132;11.366;2023-02-07T08:10:52;24.10;;;17.90;;
8042;SDS011;4064;48.132;11.366;2023-02-07T08:13:18;19.23;;;15.43;;
8042;SDS011;4064;48.132;11.366;2023-02-07T08:15:44;24.38;;;18.20;;
8042;SDS011;4064;48.132;11.366;2023-02-07T08:18:09;23.17;;;17.87;;
8042;SDS011;4064;48.132;11.366;2023-02-07T08:20:35;20.57;;;16.53;;
8042;SDS011;4064;48.132;11.366;2023-02-07T08:23:01;22.63;;;16.00;;
8042;SDS011;4064;48.132;11.366;2023-02-07T08:25:27;18.45;;;15.00;;
8042;SDS011;4064;48.132;11.366;2023-02-07T08:27:53;18.73;;;14.70;;
8042;SDS011;4064;48.132;11.366;2023-02-07T08:30:19;16.55;;;14.30;;
8042;SDS011;4064;48.132;11.366;2023-02-07T08:32:45;17.75;;;13.73;;
8042;SDS011;4064;48.132;11.366;2023-02-07T08:35:11;16.43;;;13.93;;
8042;SDS011;4064;48.132;11.366;2023-02-07T08:37:37;15.30;;;13.80;;
8042;SDS011;4064;48.132;11.366;2023-02-07T08:40:03;18.00;;;14.20;;
8042;SDS011;4064;48.132;11.366;2023-02-07T08:42:30;17.33;;;15.48;;
8042;SDS011;4064;48.132;11.366;2023-02-07T08:44:56;18.17;;;16.17;;
8042;SDS011;4064;48.132;11.366;2023-02-07T08:47:21;19.20;;;15.60;;
8042;SDS011;4064;48.132;11.366;2023-02-07T08:49:47;17.27;;;13.27;;
8042;SDS011;4064;48.132;11.366;2023-02-07T08:52:13;17.40;;;14.60;;
8042;SDS011;4064;48.132;11.366;2023-02-07T08:54:38;20.73;;;15.33;;
8042;SDS011;4064;48.132;11.366;2023-02-07T08:57:04;19.20;;;15.80;;
8042;SDS011;4064;48.132;11.366;2023-02-07T08:59:30;16.37;;;14.47;;
8042;SDS011;4064;48.132;11.366;2023-02-07T09:01:55;15.80;;;13.57;;
8042;SDS011;4064;48.132;11.366;2023-02-07T09:04:21;16.70;;;13.70;;
8042;SDS011;4064;48.132;11.366;2023-02-07T09:06:47;18.03;;;14.97;;
8042;SDS011;4064;48.132;11.366;2023-02-07T09:09:12;16.43;;;14.07;;
8042;SDS011;4064;48.132;11.366;2023-02-07T09:11:38;19.33;;;13.83;;
8042;SDS011;4064;48.132;11.366;2023-02-07T09:14:03;18.80;;;15.20;;
8042;SDS011;4064;48.132;11.366;2023-02-07T09:16:29;16.00;;;14.10;;
8042;SDS011;4064;48.132;11.366;2023-02-07T09:18:55;14.60;;;13.10;;
8042;SDS011;4064;48.132;11.366;2023-02-07T09:21:20;15.53;;;13.93;;
8042;SDS011;4064;48.132;11.366;2023-02-07T09:23:46;16.17;;;14.00;;
8042;SDS011;4064;48.132;11.366;2023-02-07T09:26:16;14.87;;;13.23;;
8042;SDS011;4064;48.132;11.366;2023-02-07T09:28:44;15.95;;;14.38;;
8042;SDS011;4064;48.132;11.366;2023-02-07T09:31:10;14.50;;;13.03;;
8042;SDS011;4064;48.132;11.366;2023-02-07T09:33:37;15.32;;;13.93;;
8042;SDS011;4064;48.132;11.366;2023-02-07T09:36:03;15.93;;;13.77;;
8042;SDS011;4064;48.132;11.366;2023-02-07T09:38:30;17.40;;;14.38;;
8042;SDS011;4064;48.132;11.366;2023-02-07T09:40:55;15.40;;;13.80;;
8042;SDS011;4064;48.132;11.366;2023-02-07T09:46:04;15.85;;;14.25;;
8042;SDS011;4064;48.132;11.366;2023-02-07T09:48:54;15.38;;;13.70;;
8042;SDS011;4064;48.132;11.366;2023-02-07T09:51:43;16.45;;;14.77;;
8042;SDS011;4064;48.132;11.366;2023-02-07T09:54:32;16.10;;;14.40;;
8042;SDS011;4064;48.132;11.366;2023-02-07T09:57:02;16.70;;;14.85;;
8042;SDS011;4064;48.132;11.366;2023-02-07T10:00:04;15.80;;;13.63;;
8042;SDS011;4064;48.132;11.366;2023-02-07T10:03:02;16.73;;;14.50;;
8042;SDS011;4064;48.132;11.366;2023-02-07T10:05:42;23.15;;;13.85;;
8042;SDS011;4064;48.132;11.366;2023-02-07T10:08:14;16.85;;;14.20;;
8042;SDS011;4064;48.132;11.366;2023-02-07T10:10:45;17.33;;;13.80;;
8042;SDS011;4064;48.132;11.366;2023-02-07T10:19:38;17.95;;;14.95;;
8042;SDS011;4064;48.132;11.366;2023-02-07T10:22:14;16.27;;;14.60;;
8042;SDS011;4064;48.132;11.366;2023-02-07T10:25:07;15.45;;;13.70;;
8042;SDS011;4064;48.132;11.366;2023-02-07T10:33:24;19.53;;;13.57;;
8042;SDS011;4064;48.132;11.366;2023-02-07T10:35:56;15.97;;;14.30;;
8042;SDS011;4064;48.132;11.366;2023-02-07T10:41:03;19.63;;;14.50;;
8042;SDS011;4064;48.132;11.366;2023-02-07T10:43:36;17.60;;;14.90;;
8042;SDS011;4064;48.132;11.366;2023-02-07T10:46:06;15.90;;;14.30;;
8042;SDS011;4064;48.132;11.366;2023-02-07T10:48:34;16.80;;;15.05;;
8042;SDS011;4064;48.132;11.366;2023-02-07T10:51:02;16.30;;;14.52;;
8042;SDS011;4064;48.132;11.366;2023-02-07T10:56:32;17.00;;;14.50;;
8042;SDS011;4064;48.132;11.366;2023-02-07T10:59:01;19.27;;;15.10;;
8042;SDS011;4064;48.132;11.366;2023-02-07T11:01:29;17.20;;;14.50;;
8042;SDS011;4064;48.132;11.366;2023-02-07T11:03:56;17.70;;;14.68;;
8042;SDS011;4064;48.132;11.366;2023-02-07T11:06:24;16.20;;;14.60;;
8042;SDS011;4064;48.132;11.366;2023-02-07T11:11:48;17.02;;;13.98;;
8042;SDS011;4064;48.132;11.366;2023-02-07T11:14:18;14.73;;;13.25;;
8042;SDS011;4064;48.132;11.366;2023-02-07T11:16:50;16.42;;;14.70;;
8042;SDS011;4064;48.132;11.366;2023-02-07T11:19:19;15.52;;;13.93;;
8042;SDS011;4064;48.132;11.366;2023-02-07T11:24:42;17.33;;;14.05;;
8042;SDS011;4064;48.132;11.366;2023-02-07T11:27:18;16.87;;;13.70;;
8042;SDS011;4064;48.132;11.366;2023-02-07T11:29:51;16.25;;;14.48;;
8042;SDS011;4064;48.132;11.366;2023-02-07T11:32:17;18.23;;;14.05;;
8042;SDS011;4064;48.132;11.366;2023-02-07T11:39:47;17.95;;;16.05;;
8042;SDS011;4064;48.132;11.366;2023-02-07T11:42:18;16.27;;;14.00;;
8042;SDS011;4064;48.132;11.366;2023-02-07T11:44:46;19.63;;;14.63;;
8042;SDS011;4064;48.132;11.366;2023-02-07T11:47:23;15.38;;;13.85;;
8042;SDS011;4064;48.132;11.366;2023-02-07T11:49:56;15.70;;;13.15;;
8042;SDS011;4064;48.132;11.366;2023-02-07T11:52:23;14.68;;;13.23;;
8042;SDS011;4064;48.132;11.366;2023-02-07T11:54:50;19.02;;;12.45;;
8042;SDS011;4064;48.132;11.366;2023-02-07T11:57:21;21.13;;;13.55;;
8042;SDS011;4064;48.132;11.366;2023-02-07T12:00:00;17.80;;;13.45;;
8042;SDS011;4064;48.132;11.366;2023-02-07T12:02:32;13.32;;;11.57;;
8042;SDS011;4064;48.132;11.366;2023-02-07T12:07:50;14.70;;;12.38;;
8042;SDS011;4064;48.132;11.366;2023-02-07T12:10:20;15.95;;;12.07;;
8042;SDS011;4064;48.132;11.366;2023-02-07T12:15:36;14.05;;;12.13;;
8042;SDS011;4064;48.132;11.366;2023-02-07T12:23:29;15.93;;;11.18;;
8042;SDS011;4064;48.132;11.366;2023-02-07T12:26:19;16.30;;;12.15;;
8042;SDS011;4064;48.132;11.366;2023-02-07T12:40:11;15.40;;;11.97;;
8042;SDS011;4064;48.132;11.366;2023-02-07T12:42:57;18.10;;;11.03;;
8042;SDS011;4064;48.132;11.366;2023-02-07T12:50:58;19.35;;;11.10;;
8042;SDS011;4064;48.132;11.366;2023-02-07T12:56:40;16.93;;;9.10;;
8042;SDS011;4064;48.132;11.366;2023-02-07T12:59:11;11.13;;;9.93;;
8042;SDS011;4064;48.132;11.366;2023-02-07T13:08:32;12.03;;;8.70;;
8042;SDS011;4064;48.132;11.366;2023-02-07T13:13:39;9.83;;;8.73;;
8042;SDS011;4064;48.132;11.366;2023-02-07T13:16:10;11.67;;;8.10;;
8042;SDS011;4064;48.132;11.366;2023-02-07T13:18:53;9.73;;;8.80;;
8042;SDS011;4064;48.132;11.366;2023-02-07T13:21:39;12.00;;;8.70;;
8042;SDS011;4064;48.132;11.366;2023-02-07T13:24:14;10.00;;;8.20;;
8042;SDS011;4064;48.132;11.366;2023-02-07T13:26:49;8.57;;;7.67;;
8042;SDS011;4064;48.132;11.366;2023-02-07T13:29:18;11.53;;;7.77;;
8042;SDS011;4064;48.132;11.366;2023-02-07T13:31:50;9.00;;;8.10;;
8042;SDS011;4064;48.132;11.366;2023-02-07T13:34:22;10.20;;;8.03;;
8042;SDS011;4064;48.132;11.366;2023-02-07T13:36:50;10.70;;;7.80;;
8042;SDS011;4064;48.132;11.366;2023-02-07T13:55:36;7.55;;;6.68;;
8042;SDS011;4064;48.132;11.366;2023-02-07T13:58:04;9.38;;;6.90;;
8042;SDS011;4064;48.132;11.366;2023-02-07T14:01:18;10.20;;;7.28;;
8042;SDS011;4064;48.132;11.366;2023-02-07T14:06:44;11.05;;;7.72;;
8042;SDS011;4064;48.132;11.366;2023-02-07T14:09:36;8.45;;;7.30;;
8042;SDS011;4064;48.132;11.366;2023-02-07T14:12:07;11.77;;;8.93;;
8042;SDS011;4064;48.132;11.366;2023-02-07T14:14:40;9.13;;;7.35;;
8042;SDS011;4064;48.132;11.366;2023-02-07T14:17:11;8.27;;;7.43;;
8042;SDS011;4064;48.132;11.366;2023-02-07T14:19:57;8.98;;;7.55;;
8042;SDS011;4064;48.132;11.366;2023-02-07T14:22:29;13.35;;;7.97;;
8042;SDS011;4064;48.132;11.366;2023-02-07T14:25:22;11.18;;;7.60;;
8042;SDS011;4064;48.132;11.366;2023-02-07T14:30:37;12.98;;;8.98;;
8042;SDS011;4064;48.132;11.366;2023-02-07T14:33:18;15.68;;;9.60;;
8042;SDS011;4064;48.132;11.366;2023-02-07T14:38:21;9.87;;;8.47;;
8042;SDS011;4064;48.132;11.366;2023-02-07T14:40:54;12.43;;;8.57;;
8042;SDS011;4064;48.132;11.366;2023-02-07T14:43:47;11.20;;;9.43;;
8042;SDS011;4064;48.132;11.366;2023-02-07T14:46:17;16.08;;;9.77;;
8042;SDS011;4064;48.132;11.366;2023-02-07T14:54:39;11.48;;;9.48;;
8042;SDS011;4064;48.132;11.366;2023-02-07T15:02:40;12.18;;;9.02;;
8042;SDS011;4064;48.132;11.366;2023-02-07T15:07:38;14.23;;;9.70;;
8042;SDS011;4064;48.132;11.366;2023-02-07T15:10:21;12.15;;;9.43;;
8042;SDS011;4064;48.132;11.366;2023-02-07T15:12:50;12.95;;;9.77;;
8042;SDS011;4064;48.132;11.366;2023-02-07T15:15:29;12.07;;;9.30;;
8042;SDS011;4064;48.132;11.366;2023-02-07T15:18:16;13.35;;;9.85;;
8042;SDS011;4064;48.132;11.366;2023-02-07T15:20:47;14.45;;;10.68;;
8042;SDS011;4064;48.132;11.366;2023-02-07T15:23:15;11.25;;;9.52;;
8042;SDS011;4064;48.132;11.366;2023-02-07T15:25:42;15.13;;;9.33;;
8042;SDS011;4064;48.132;11.366;2023-02-07T15:28:30;13.80;;;9.50;;
8042;SDS011;4064;48.132;11.366;2023-02-07T15:31:00;19.17;;;8.70;;
8042;SDS011;4064;48.132;11.366;2023-02-07T15:33:29;17.52;;;10.70;;
8042;SDS011;4064;48.132;11.366;2023-02-07T15:36:01;11.98;;;9.45;;
8042;SDS011;4064;48.132;11.366;2023-02-07T15:38:31;15.50;;;10.45;;
8042;SDS011;4064;48.132;11.366;2023-02-07T15:40:57;11.27;;;8.73;;
8042;SDS011;4064;48.132;11.366;2023-02-07T15:43:30;12.87;;;9.00;;
8042;SDS011;4064;48.132;11.366;2023-02-07T15:46:05;16.48;;;9.85;;
8042;SDS011;4064;48.132;11.366;2023-02-07T15:48:33;12.85;;;8.90;;
8042;SDS011;4064;48.132;11.366;2023-02-07T15:51:11;14.30;;;9.43;;
8042;SDS011;4064;48.132;11.366;2023-02-07T15:53:39;14.68;;;10.50;;
8042;SDS011;4064;48.132;11.366;2023-02-07T15:56:05;13.00;;;10.60;;
8042;SDS011;4064;48.132;11.366;2023-02-07T15:58:35;11.82;;;9.70;;
8042;SDS011;4064;48.132;11.366;2023-02-07T16:01:03;15.38;;;12.00;;
8042;SDS011;4064;48.132;11.366;2023-02-07T16:03:39;20.75;;;14.32;;
8042;SDS011;4064;48.132;11.366;2023-02-07T16:06:21;16.80;;;12.65;;
8042;SDS011;4064;48.132;11.366;2023-02-07T16:08:58;22.15;;;14.13;;
8042;SDS011;4064;48.132;11.366;2023-02-07T16:16:27;24.50;;;15.70;;
8042;SDS011;4064;48.132;11.366;2023-02-07T16:21:38;21.17;;;13.97;;
8042;SDS011;4064;48.132;11.366;2023-02-07T16:24:05;24.67;;;12.75;;
8042;SDS011;4064;48.132;11.366;2023-02-07T16:26:36;19.83;;;12.90;;
8042;SDS011;4064;48.132;11.366;2023-02-07T16:29:05;23.30;;;13.57;;
8042;SDS011;4064;48.132;11.366;2023-02-07T16:31:31;22.27;;;14.93;;
8042;SDS011;4064;48.132;11.366;2023-02-07T16:33:57;18.33;;;13.82;;
8042;SDS011;4064;48.132;11.366;2023-02-07T16:36:23;19.00;;;14.37;;
8042;SDS011;4064;48.132;11.366;2023-02-07T16:38:49;23.50;;;16.03;;
8042;SDS011;4064;48.132;11.366;2023-02-07T16:41:23;20.90;;;15.07;;
8042;SDS011;4064;48.132;11.366;2023-02-07T16:43:55;19.88;;;13.85;;
8042;SDS011;4064;48.132;11.366;2023-02-07T16:46:21;22.23;;;15.30;;
8042;SDS011;4064;48.132;11.366;2023-02-07T16:48:47;24.10;;;14.00;;
8042;SDS011;4064;48.132;11.366;2023-02-07T16:51:12;22.47;;;14.80;;
8042;SDS011;4064;48.132;11.366;2023-02-07T16:53:38;27.80;;;14.80;;
8042;SDS011;4064;48.132;11.366;2023-02-07T16:56:03;24.53;;;15.60;;
8042;SDS011;4064;48.132;11.366;2023-02-07T16:58:30;25.37;;;15.57;;
8042;SDS011;4064;48.132;11.366;2023-02-07T17:00:56;18.70;;;13.00;;
8042;SDS011;4064;48.132;11.366;2023-02-07T17:03:22;21.00;;;14.20;;
8042;SDS011;4064;48.132;11.366;2023-02-07T17:05:48;22.40;;;13.90;;
8042;SDS011;4064;48.132;11.366;2023-02-07T17:08:15;19.05;;;13.73;;
8042;SDS011;4064;48.132;11.366;2023-02-07T17:10:45;22.17;;;14.57;;
8042;SDS011;4064;48.132;11.366;2023-02-07T17:13:19;17.63;;;12.40;;
8042;SDS011;4064;48.132;11.366;2023-02-07T17:15:44;23.43;;;15.27;;
8042;SDS011;4064;48.132;11.366;2023-02-07T17:18:11;24.27;;;15.73;;
8042;SDS011;4064;48.132;11.366;2023-02-07T17:20:37;24.83;;;15.10;;
8042;SDS011;4064;48.132;11.366;2023-02-07T17:23:02;19.73;;;15.60;;
8042;SDS011;4064;48.132;11.366;2023-02-07T17:25:28;25.20;;;21.27;;
8042;SDS011;4064;48.132;11.366;2023-02-07T17:27:55;22.98;;;13.07;;
8042;SDS011;4064;48.132;11.366;2023-02-07T17:30:23;18.85;;;14.20;;